Kezdőlap
METAR-TAF:

METAR-TAF

Repülőterek :

Albertus Airport

Freeport, Illinois, Amerikai Egyesült Államok

földrajzi szélesség: 42-14-47N, földrajzi hosszúság: 089-34-56W, magasság: 262 m

Jelenlegi meteorológiai megfigyelések

A jelentés 30 perccel ezelõtt készült, 06:15 UTC
Nyugati szél 11 kt széllökések: 15 kt
Hőmérséklet 1°C
Páratartalom 100%
Légköri nyomás 1010 hPa
Látótávolság: 2.8 km
Borult 300 lábon
Párásság

METAR: KFEP 180615Z AUTO 26011G15KT 1 3/4SM BR OVC003 01/01 A2982 RMK AO2 P0001 T00100010

Idő: 00:45 (06:45 UTC)


TAF: hiányzik

Meteorológiai megfigyelések és előrejelzések több, mint 4000 repülőtéren (METAR és TAF jelentéseket).

A térképen piros és sárga pontok jelzik az elérhető meteorológiai állomásokat.

Mozgassa az egeret a pont fölött, hogy megjelenjen az állomás neve.

Azután kattintson az időjárási megfigyelések és előrejelzések megtekintéséhez.

A térkép megváltoztatása: kattintson a fekete keresztel jelölt zöld gombra ráközelítéshez, a vonallal jelölt zöld gombra távolításhoz, vagy a zöld nyilakra a szomszédos térképek eléréséhez.


METAR-TAF: